createdAt,value
2022-10-05T00:01:04.046Z,100.00
2022-10-05T00:03:37.174Z,100.00
2022-10-05T00:06:06.783Z,100.00
2022-10-05T00:08:37.891Z,100.00
2022-10-05T00:11:11.375Z,100.00
2022-10-05T00:13:42.813Z,100.00
2022-10-05T00:16:23.809Z,100.00
2022-10-05T00:18:55.790Z,100.00
2022-10-05T00:21:26.163Z,100.00
2022-10-05T00:23:58.537Z,100.00
2022-10-05T00:26:28.943Z,100.00
2022-10-05T00:29:00.780Z,100.00
2022-10-05T00:31:35.528Z,100.00
2022-10-05T00:34:04.850Z,100.00
2022-10-05T00:36:34.175Z,100.00
2022-10-05T00:39:05.505Z,100.00
2022-10-05T00:41:53.210Z,100.00
2022-10-05T00:44:34.056Z,100.00
2022-10-05T00:47:29.301Z,100.00
2022-10-05T00:50:07.431Z,100.00
2022-10-05T00:52:58.851Z,100.00
2022-10-05T00:55:45.570Z,100.00
2022-10-05T00:58:44.190Z,100.00
2022-10-05T01:01:51.389Z,100.00
2022-10-05T01:04:36.951Z,100.00
2022-10-05T01:07:25.361Z,100.00
2022-10-05T01:10:08.559Z,100.00
2022-10-05T01:13:01.199Z,100.00
2022-10-05T01:15:46.823Z,100.00
2022-10-05T01:18:27.202Z,100.00
2022-10-05T01:21:13.688Z,100.00
2022-10-05T01:24:11.709Z,100.00
2022-10-05T01:26:59.512Z,100.00
2022-10-05T01:29:55.677Z,100.00
2022-10-05T01:32:32.916Z,100.00
2022-10-05T01:35:11.939Z,100.00
2022-10-05T01:37:52.307Z,100.00
2022-10-05T01:40:40.369Z,100.00
2022-10-05T01:43:28.550Z,100.00
2022-10-05T01:46:31.553Z,100.00
2022-10-05T01:49:22.085Z,100.00
2022-10-05T01:52:13.030Z,100.00
2022-10-05T01:55:21.343Z,100.00
2022-10-05T01:58:06.080Z,100.00
2022-10-05T02:00:43.700Z,100.00
2022-10-05T02:03:27.927Z,100.00
2022-10-05T02:06:02.291Z,100.00
2022-10-05T02:08:40.305Z,100.00
2022-10-05T02:11:14.623Z,100.00
2022-10-05T02:14:00.831Z,100.00
2022-10-05T02:16:39.106Z,100.00
2022-10-05T02:19:17.859Z,100.00
2022-10-05T02:21:51.041Z,100.00
2022-10-05T02:24:38.273Z,100.00
2022-10-05T02:27:09.699Z,100.00
2022-10-05T02:29:45.280Z,100.00
2022-10-05T02:32:21.175Z,100.00
2022-10-05T02:34:50.548Z,100.00
2022-10-05T02:37:46.576Z,100.00
2022-10-05T02:40:35.943Z,100.00
2022-10-05T02:43:26.655Z,100.00
2022-10-05T02:46:14.895Z,100.00
2022-10-05T02:48:57.101Z,100.00
2022-10-05T02:51:31.337Z,100.00
2022-10-05T02:54:25.352Z,100.00
2022-10-05T02:57:23.811Z,100.00
2022-10-05T03:00:06.818Z,100.00
2022-10-05T03:02:45.843Z,100.00
2022-10-05T03:05:24.866Z,100.00
2022-10-05T03:08:03.407Z,100.00
2022-10-05T03:10:48.706Z,100.00
2022-10-05T03:13:23.792Z,100.00
2022-10-05T03:16:13.054Z,100.00
2022-10-05T03:19:07.163Z,100.00
2022-10-05T03:21:55.351Z,100.00
2022-10-05T03:24:41.375Z,100.00
2022-10-05T03:27:58.411Z,100.00
2022-10-05T03:30:34.543Z,100.00
2022-10-05T03:33:39.560Z,100.00
2022-10-05T03:36:21.025Z,100.00
2022-10-05T03:39:10.596Z,100.00
2022-10-05T03:41:50.183Z,100.00
2022-10-05T03:44:28.060Z,100.00
2022-10-05T03:47:18.750Z,100.00
2022-10-05T03:50:10.834Z,100.00
2022-10-05T03:53:00.785Z,100.00
2022-10-05T03:55:46.659Z,100.00
2022-10-05T03:58:22.915Z,100.00
2022-10-05T04:00:58.826Z,100.00
2022-10-05T04:03:47.405Z,100.00
2022-10-05T04:06:26.846Z,100.00
2022-10-05T04:09:06.160Z,100.00
2022-10-05T04:11:42.845Z,100.00
2022-10-05T04:14:22.642Z,100.00
2022-10-05T04:17:01.415Z,100.00
2022-10-05T04:19:42.112Z,100.00
2022-10-05T04:22:25.737Z,100.00
2022-10-05T04:25:20.442Z,100.00
2022-10-05T04:28:11.210Z,100.00
2022-10-05T04:30:47.823Z,100.00
2022-10-05T04:33:17.432Z,100.00
2022-10-05T04:36:02.104Z,100.00
2022-10-05T04:38:44.560Z,100.00
2022-10-05T04:41:32.735Z,100.00
2022-10-05T04:44:16.279Z,100.00
2022-10-05T04:47:12.568Z,100.00
2022-10-05T04:50:07.511Z,100.00
2022-10-05T04:53:02.787Z,100.00
2022-10-05T04:55:42.711Z,100.00
2022-10-05T04:58:31.879Z,100.00
2022-10-05T05:01:22.752Z,100.00
2022-10-05T05:04:32.276Z,100.00
2022-10-05T05:07:24.551Z,100.00
2022-10-05T05:10:35.339Z,100.00
2022-10-05T05:13:38.946Z,100.00
2022-10-05T05:16:14.937Z,100.00
2022-10-05T05:19:13.162Z,100.00
2022-10-05T05:21:48.139Z,100.00
2022-10-05T05:24:29.935Z,100.00
2022-10-05T05:27:19.398Z,100.00
2022-10-05T05:30:03.948Z,100.00
2022-10-05T05:33:00.704Z,100.00
2022-10-05T05:36:04.967Z,100.00
2022-10-05T05:38:38.055Z,100.00
2022-10-05T05:41:12.013Z,100.00
2022-10-05T05:44:06.049Z,100.00
2022-10-05T05:50:07.901Z,100.00
2022-10-05T05:52:49.803Z,100.00
2022-10-05T05:55:30.394Z,100.00
2022-10-05T05:58:20.044Z,100.00
2022-10-05T06:00:56.683Z,100.00
2022-10-05T06:03:38.451Z,100.00
2022-10-05T06:06:24.784Z,100.00
2022-10-05T06:09:00.737Z,100.00
2022-10-05T06:12:18.169Z,100.00
2022-10-05T06:14:51.142Z,100.00
2022-10-05T06:17:24.107Z,100.00
2022-10-05T06:20:02.423Z,100.00
2022-10-05T06:22:48.596Z,100.00
2022-10-05T06:25:54.689Z,100.00
2022-10-05T06:28:28.832Z,100.00
2022-10-05T06:31:45.026Z,100.00
2022-10-05T06:34:25.452Z,100.00
2022-10-05T06:37:20.677Z,100.00
2022-10-05T06:40:08.463Z,100.00
2022-10-05T06:42:54.032Z,100.00
2022-10-05T06:46:02.846Z,100.00
2022-10-05T06:49:26.179Z,100.00
2022-10-05T06:52:39.619Z,100.00
2022-10-05T06:55:30.409Z,100.00
2022-10-05T06:58:09.359Z,100.00
2022-10-05T07:00:50.286Z,100.00
2022-10-05T07:03:48.952Z,100.00
2022-10-05T07:06:24.085Z,100.00
2022-10-05T07:09:02.785Z,100.00
2022-10-05T07:12:04.517Z,100.00
2022-10-05T07:15:04.371Z,100.00
2022-10-05T07:17:53.286Z,100.00
2022-10-05T07:20:53.303Z,100.00
2022-10-05T07:23:44.548Z,100.00
2022-10-05T07:26:38.619Z,100.00
2022-10-05T07:29:10.890Z,100.00
2022-10-05T07:31:53.725Z,100.00
2022-10-05T07:34:38.884Z,100.00
2022-10-05T07:37:27.912Z,100.00
2022-10-05T07:40:25.516Z,100.00
2022-10-05T07:43:10.085Z,100.00
2022-10-05T07:46:17.369Z,100.00
2022-10-05T07:49:03.450Z,100.00
2022-10-05T07:51:45.250Z,100.00
2022-10-05T07:54:47.320Z,100.00
2022-10-05T07:57:49.616Z,100.00
2022-10-05T08:00:23.236Z,100.00
2022-10-05T08:03:08.029Z,100.00
2022-10-05T08:05:43.575Z,100.00
2022-10-05T08:08:28.132Z,100.00
2022-10-05T08:11:21.991Z,100.00
2022-10-05T08:14:02.972Z,100.00
2022-10-05T08:16:39.479Z,100.00
2022-10-05T08:19:17.543Z,100.00
2022-10-05T08:21:58.264Z,100.00
2022-10-05T08:24:56.592Z,100.00
2022-10-05T08:27:31.295Z,100.00
2022-10-05T08:30:07.158Z,100.00
2022-10-05T08:32:45.645Z,100.00
2022-10-05T08:35:38.545Z,100.00
2022-10-05T08:38:16.701Z,100.00
2022-10-05T08:40:52.067Z,100.00
2022-10-05T08:43:40.087Z,100.00
2022-10-05T08:46:28.334Z,100.00
2022-10-05T08:49:42.134Z,100.00
2022-10-05T08:52:29.199Z,100.00
2022-10-05T08:55:29.295Z,100.00
2022-10-05T08:58:17.368Z,100.00
2022-10-05T09:00:59.025Z,100.00
2022-10-05T09:03:50.393Z,100.00
2022-10-05T09:06:30.716Z,100.00
2022-10-05T09:09:27.508Z,100.00
2022-10-05T09:12:28.091Z,100.00
2022-10-05T09:15:30.053Z,100.00
2022-10-05T09:18:11.516Z,100.00
2022-10-05T09:20:56.823Z,100.00
2022-10-05T09:23:46.430Z,100.00
2022-10-05T09:27:01.747Z,100.00
2022-10-05T09:29:56.062Z,100.00
2022-10-05T09:33:07.387Z,100.00
2022-10-05T09:36:20.499Z,100.00
2022-10-05T09:39:17.266Z,100.00
2022-10-05T09:42:04.647Z,100.00
2022-10-05T09:45:03.359Z,100.00
2022-10-05T09:48:01.290Z,100.00
2022-10-05T09:50:36.447Z,100.00
2022-10-05T09:53:40.757Z,100.00
2022-10-05T09:56:25.545Z,100.00
2022-10-05T09:59:13.375Z,100.00
2022-10-05T10:02:20.541Z,100.00
2022-10-05T10:05:05.676Z,100.00
2022-10-05T10:07:48.606Z,100.00
2022-10-05T10:10:36.395Z,100.00
2022-10-05T10:13:28.560Z,100.00
2022-10-05T10:16:11.380Z,100.00
2022-10-05T10:19:06.102Z,100.00
2022-10-05T10:22:12.885Z,100.00
2022-10-05T10:24:51.400Z,100.00
2022-10-05T10:28:18.534Z,100.00
2022-10-05T10:30:58.100Z,100.00
2022-10-05T10:33:35.907Z,100.00
2022-10-05T10:36:23.661Z,100.00
2022-10-05T10:39:00.459Z,100.00
2022-10-05T10:41:41.863Z,100.00
2022-10-05T10:44:29.900Z,100.00
2022-10-05T10:47:08.173Z,100.00
2022-10-05T10:50:10.564Z,100.00
2022-10-05T10:53:16.354Z,100.00
2022-10-05T10:56:09.897Z,100.00
2022-10-05T10:59:17.374Z,100.00
2022-10-05T11:02:42.349Z,100.00
2022-10-05T11:05:23.120Z,100.00
2022-10-05T11:08:04.023Z,100.00
2022-10-05T11:10:58.918Z,100.00
2022-10-05T11:13:55.700Z,100.00
2022-10-05T11:16:48.501Z,100.00
2022-10-05T11:20:02.479Z,100.00
2022-10-05T11:22:53.001Z,100.00
2022-10-05T11:25:37.374Z,100.00
2022-10-05T11:28:37.536Z,100.00
2022-10-05T11:31:24.784Z,100.00
2022-10-05T11:34:31.747Z,100.00
2022-10-05T11:37:41.487Z,99.69
2022-10-05T11:40:16.765Z,97.69
2022-10-05T11:43:55.797Z,95.24
2022-10-05T11:46:41.368Z,94.15
2022-10-05T11:49:21.885Z,93.64
2022-10-05T11:51:54.126Z,93.44
2022-10-05T11:54:29.536Z,92.96
2022-10-05T11:57:06.269Z,94.08
2022-10-05T11:59:46.016Z,91.70
2022-10-05T12:02:34.850Z,91.01
2022-10-05T12:05:14.439Z,91.04
2022-10-05T12:07:52.296Z,90.24
2022-10-05T12:10:39.548Z,90.66
2022-10-05T12:13:41.763Z,92.68
2022-10-05T12:16:24.504Z,93.11
2022-10-05T12:19:08.936Z,94.64
2022-10-05T12:21:53.159Z,94.18
2022-10-05T12:24:34.257Z,91.72
2022-10-05T12:27:23.296Z,90.54
2022-10-05T12:30:05.975Z,91.85
2022-10-05T12:32:47.458Z,90.77
2022-10-05T12:35:43.822Z,90.91
2022-10-05T12:38:39.325Z,90.71
2022-10-05T12:41:12.974Z,90.13
2022-10-05T12:44:09.579Z,91.49
2022-10-05T12:47:15.190Z,88.56
2022-10-05T12:49:52.617Z,87.66
2022-10-05T12:52:43.379Z,87.65
2022-10-05T12:55:26.176Z,87.73
2022-10-05T12:58:17.489Z,87.72
2022-10-05T13:00:57.374Z,86.72
2022-10-05T13:03:48.958Z,86.51
2022-10-05T13:06:36.398Z,87.46
2022-10-05T13:09:16.153Z,86.09
2022-10-05T13:11:51.568Z,86.38
2022-10-05T13:14:41.196Z,87.76
2022-10-05T13:17:24.343Z,88.21
2022-10-05T13:20:10.392Z,89.86
2022-10-05T13:22:46.074Z,89.12
2022-10-05T13:25:44.659Z,87.55
2022-10-05T13:28:26.030Z,88.78
2022-10-05T13:31:05.779Z,90.92
2022-10-05T13:34:09.838Z,90.09
2022-10-05T13:36:50.580Z,89.37
2022-10-05T13:39:38.122Z,91.01
2022-10-05T13:42:15.599Z,92.27
2022-10-05T13:44:53.320Z,92.12
2022-10-05T13:48:00.679Z,90.52
2022-10-05T13:50:33.717Z,90.87
2022-10-05T13:53:09.172Z,91.18
2022-10-05T13:55:49.862Z,90.86
2022-10-05T13:58:50.300Z,92.06
2022-10-05T14:01:44.510Z,89.56
2022-10-05T14:04:24.737Z,90.62
2022-10-05T14:06:54.776Z,91.87
2022-10-05T14:09:37.028Z,92.95
2022-10-05T14:12:06.252Z,94.35
2022-10-05T14:14:46.303Z,92.76
2022-10-05T14:17:47.346Z,92.77
2022-10-05T14:20:21.486Z,92.30
2022-10-05T14:23:19.745Z,92.82
2022-10-05T14:25:54.862Z,94.12
2022-10-05T14:28:29.641Z,94.35
2022-10-05T14:31:30.559Z,95.06
2022-10-05T14:34:00.113Z,95.65
2022-10-05T14:36:43.952Z,95.34
2022-10-05T14:39:16.597Z,95.20
2022-10-05T14:41:52.105Z,95.64
2022-10-05T14:44:33.823Z,95.32
2022-10-05T14:47:19.714Z,96.62
2022-10-05T14:50:17.883Z,95.87
2022-10-05T14:53:05.469Z,97.30
2022-10-05T14:56:11.250Z,96.77
2022-10-05T14:58:47.538Z,92.47
2022-10-05T15:01:31.013Z,91.82
2022-10-05T15:04:06.419Z,89.34
2022-10-05T15:06:58.457Z,89.49
2022-10-05T15:09:54.476Z,89.66
2022-10-05T15:12:33.113Z,91.04
2022-10-05T15:15:22.511Z,90.72
2022-10-05T15:17:58.285Z,90.32
2022-10-05T15:20:43.854Z,91.93
2022-10-05T15:23:24.938Z,93.12
2022-10-05T15:26:30.831Z,93.28
2022-10-05T15:29:21.763Z,94.54
2022-10-05T15:31:53.982Z,94.74
2022-10-05T15:34:31.187Z,95.62
2022-10-05T15:37:22.491Z,95.66
2022-10-05T15:39:57.426Z,96.46
2022-10-05T15:42:38.309Z,96.35
2022-10-05T15:45:37.668Z,93.39
2022-10-05T15:48:29.211Z,92.46
2022-10-05T15:51:15.244Z,88.67
2022-10-05T15:54:17.606Z,89.02
2022-10-05T15:56:58.855Z,91.02
2022-10-05T15:59:55.008Z,88.06
2022-10-05T16:02:31.252Z,85.49
2022-10-05T16:05:19.999Z,83.86
2022-10-05T16:08:07.385Z,84.43
2022-10-05T16:10:41.442Z,84.77
2022-10-05T16:13:22.453Z,84.32
2022-10-05T16:16:00.371Z,84.64
2022-10-05T16:18:44.233Z,85.68
2022-10-05T16:21:41.379Z,86.62
2022-10-05T16:24:43.636Z,87.86
2022-10-05T16:27:42.377Z,89.28
2022-10-05T16:30:24.485Z,89.52
2022-10-05T16:33:05.977Z,89.50
2022-10-05T16:35:56.502Z,90.27
2022-10-05T16:38:38.436Z,90.91
2022-10-05T16:41:32.668Z,90.76
2022-10-05T16:44:26.372Z,92.15
2022-10-05T16:47:21.948Z,93.38
2022-10-05T16:50:20.373Z,93.89
2022-10-05T16:53:00.177Z,94.51
2022-10-05T16:55:38.475Z,94.96
2022-10-05T16:58:21.368Z,96.12
2022-10-05T17:01:42.353Z,95.82
2022-10-05T17:04:25.507Z,96.34
2022-10-05T17:07:43.080Z,96.37
2022-10-05T17:10:41.755Z,97.13
2022-10-05T17:13:41.127Z,97.59
2022-10-05T17:16:25.027Z,98.04
2022-10-05T17:19:32.249Z,98.58
2022-10-05T17:22:15.032Z,98.89
2022-10-05T17:24:55.104Z,99.02
2022-10-05T17:27:56.776Z,99.45
2022-10-05T17:30:32.428Z,100.00
2022-10-05T17:33:27.447Z,100.00
2022-10-05T17:36:20.764Z,100.00
2022-10-05T17:38:53.388Z,100.00
2022-10-05T17:41:30.546Z,100.00
2022-10-05T17:44:16.209Z,99.77
2022-10-05T17:46:48.059Z,100.00
2022-10-05T17:49:39.029Z,100.00
2022-10-05T17:52:36.712Z,100.00
2022-10-05T17:55:28.908Z,100.00
2022-10-05T17:58:04.791Z,100.00
2022-10-05T18:00:43.884Z,100.00
2022-10-05T18:03:41.140Z,100.00
2022-10-05T18:06:29.542Z,100.00
2022-10-05T18:09:17.072Z,100.00
2022-10-05T18:11:49.271Z,100.00
2022-10-05T18:14:26.372Z,100.00
2022-10-05T18:17:02.652Z,100.00
2022-10-05T18:19:37.604Z,100.00
2022-10-05T18:22:30.777Z,100.00
2022-10-05T18:25:09.655Z,100.00
2022-10-05T18:28:05.448Z,100.00
2022-10-05T18:31:00.821Z,100.00
2022-10-05T18:33:53.265Z,100.00
2022-10-05T18:36:50.734Z,100.00
2022-10-05T18:39:22.870Z,100.00
2022-10-05T18:42:04.496Z,100.00
2022-10-05T18:44:52.078Z,100.00
2022-10-05T18:47:52.318Z,100.00
2022-10-05T18:50:32.259Z,100.00
2022-10-05T18:53:13.755Z,100.00
2022-10-05T18:56:02.279Z,100.00
2022-10-05T18:58:39.967Z,100.00
2022-10-05T19:01:27.026Z,100.00
2022-10-05T19:04:10.672Z,100.00
2022-10-05T19:06:54.368Z,100.00
2022-10-05T19:09:29.616Z,100.00
2022-10-05T19:12:23.207Z,100.00
2022-10-05T19:15:06.970Z,100.00
2022-10-05T19:17:51.334Z,100.00
2022-10-05T19:20:34.098Z,100.00
2022-10-05T19:23:12.502Z,100.00
2022-10-05T19:25:54.874Z,100.00
2022-10-05T19:28:31.446Z,100.00
2022-10-05T19:31:19.692Z,100.00
2022-10-05T19:34:01.605Z,100.00
2022-10-05T19:36:41.900Z,100.00
2022-10-05T19:39:36.603Z,100.00
2022-10-05T19:42:47.504Z,100.00
2022-10-05T19:45:28.158Z,100.00
2022-10-05T19:48:22.041Z,100.00
2022-10-05T19:51:03.160Z,100.00
2022-10-05T19:53:36.452Z,100.00
2022-10-05T19:56:25.592Z,100.00
2022-10-05T19:58:59.448Z,100.00
2022-10-05T20:01:35.457Z,100.00
2022-10-05T20:04:05.138Z,100.00
2022-10-05T20:06:34.552Z,100.00
2022-10-05T20:09:22.091Z,100.00
2022-10-05T20:11:53.391Z,100.00
2022-10-05T20:14:28.754Z,100.00
2022-10-05T20:17:46.169Z,100.00
2022-10-05T20:20:45.774Z,100.00
2022-10-05T20:23:21.762Z,100.00
2022-10-05T20:26:11.445Z,100.00
2022-10-05T20:28:40.959Z,100.00
2022-10-05T20:31:10.983Z,100.00
2022-10-05T20:33:40.342Z,100.00
2022-10-05T20:36:09.841Z,100.00
2022-10-05T20:38:41.232Z,100.00
2022-10-05T20:41:10.672Z,100.00
2022-10-05T20:43:40.511Z,100.00
2022-10-05T20:46:10.261Z,100.00
2022-10-05T20:48:39.776Z,100.00
2022-10-05T20:51:09.054Z,100.00
2022-10-05T20:53:38.437Z,100.00
2022-10-05T20:56:07.933Z,100.00
2022-10-05T20:58:37.175Z,100.00
2022-10-05T21:01:19.807Z,100.00
2022-10-05T21:03:49.683Z,100.00
2022-10-05T21:06:21.090Z,100.00
2022-10-05T21:08:51.430Z,100.00
2022-10-05T21:11:20.826Z,100.00
2022-10-05T21:13:51.203Z,100.00
2022-10-05T21:16:21.450Z,100.00
2022-10-05T21:18:51.810Z,100.00
2022-10-05T21:21:21.884Z,100.00
2022-10-05T21:23:51.259Z,100.00
2022-10-05T21:26:20.529Z,100.00
2022-10-05T21:28:50.566Z,100.00
2022-10-05T21:31:19.937Z,100.00
2022-10-05T21:33:49.208Z,100.00
2022-10-05T21:36:22.421Z,100.00
2022-10-05T21:38:55.102Z,100.00
2022-10-05T21:41:25.171Z,100.00
2022-10-05T21:43:54.430Z,100.00
2022-10-05T21:46:26.627Z,100.00
2022-10-05T21:48:57.021Z,100.00
2022-10-05T21:51:28.417Z,100.00
2022-10-05T21:54:05.041Z,100.00
2022-10-05T21:56:38.544Z,100.00
2022-10-05T21:59:11.184Z,100.00
2022-10-05T22:01:40.571Z,100.00
2022-10-05T22:04:10.236Z,100.00
2022-10-05T22:06:40.424Z,100.00
2022-10-05T22:09:09.768Z,100.00
2022-10-05T22:11:39.376Z,100.00
2022-10-05T22:14:09.276Z,100.00
2022-10-05T22:16:41.282Z,100.00
2022-10-05T22:19:17.036Z,100.00
2022-10-05T22:21:46.315Z,100.00
2022-10-05T22:24:15.610Z,100.00
2022-10-05T22:26:48.977Z,100.00
2022-10-05T22:29:20.126Z,100.00
2022-10-05T22:31:50.815Z,100.00
2022-10-05T22:34:20.707Z,100.00
2022-10-05T22:36:50.785Z,100.00
2022-10-05T22:39:20.426Z,100.00
2022-10-05T22:41:50.449Z,100.00
2022-10-05T22:44:19.714Z,100.00
2022-10-05T22:46:48.999Z,100.00
2022-10-05T22:49:18.437Z,100.00
2022-10-05T22:51:48.247Z,100.00
2022-10-05T22:54:18.170Z,100.00
2022-10-05T22:56:47.467Z,100.00
2022-10-05T22:59:17.860Z,100.00
2022-10-05T23:01:47.176Z,100.00
2022-10-05T23:04:16.487Z,100.00
2022-10-05T23:06:45.763Z,100.00
2022-10-05T23:09:15.031Z,100.00
2022-10-05T23:11:44.314Z,100.00
2022-10-05T23:14:13.817Z,100.00
2022-10-05T23:16:43.131Z,100.00
2022-10-05T23:19:12.507Z,100.00
2022-10-05T23:21:42.631Z,100.00
2022-10-05T23:24:11.884Z,100.00
2022-10-05T23:26:41.196Z,100.00
2022-10-05T23:29:10.454Z,100.00
2022-10-05T23:31:39.735Z,100.00
2022-10-05T23:34:09.043Z,100.00
2022-10-05T23:36:38.314Z,100.00
2022-10-05T23:39:08.075Z,100.00
2022-10-05T23:41:37.391Z,100.00
2022-10-05T23:44:06.700Z,100.00
2022-10-05T23:46:35.955Z,100.00
2022-10-05T23:49:05.207Z,100.00
2022-10-05T23:51:34.484Z,100.00
2022-10-05T23:54:03.840Z,100.00
2022-10-05T23:56:33.254Z,100.00
2022-10-05T23:59:03.161Z,100.00
